createdAt,value
2023-04-23T00:00:21.085Z,8.92
2023-04-23T00:03:23.059Z,8.89
2023-04-23T00:06:24.861Z,8.85
2023-04-23T00:09:30.732Z,8.90
2023-04-23T00:12:33.036Z,8.88
2023-04-23T00:15:37.323Z,8.75
2023-04-23T00:18:38.976Z,8.68
2023-04-23T00:21:40.637Z,8.77
2023-04-23T00:24:42.945Z,8.65
2023-04-23T00:27:44.859Z,8.63
2023-04-23T00:30:47.865Z,8.61
2023-04-23T00:33:49.659Z,8.63
2023-04-23T00:36:51.301Z,8.63
2023-04-23T00:39:52.987Z,8.67
2023-04-23T00:42:56.046Z,8.57
2023-04-23T00:46:00.113Z,8.57
2023-04-23T00:49:02.028Z,8.48
2023-04-23T00:52:03.934Z,8.57
2023-04-23T00:55:06.996Z,8.50
2023-04-23T00:58:09.027Z,8.45
2023-04-23T01:01:12.891Z,8.55
2023-04-23T01:04:16.355Z,8.55
2023-04-23T01:07:18.531Z,8.60
2023-04-23T01:10:20.981Z,8.60
2023-04-23T01:13:22.936Z,8.62
2023-04-23T01:16:25.993Z,8.59
2023-04-23T01:19:27.624Z,8.61
2023-04-23T01:22:30.729Z,8.44
2023-04-23T01:25:32.402Z,8.41
2023-04-23T01:28:34.915Z,8.53
2023-04-23T01:31:36.940Z,8.38
2023-04-23T01:34:39.802Z,8.41
2023-04-23T01:37:44.680Z,8.36
2023-04-23T01:40:46.557Z,8.23
2023-04-23T01:43:48.708Z,8.26
2023-04-23T01:46:50.885Z,8.37
2023-04-23T01:49:52.847Z,8.22
2023-04-23T01:52:55.909Z,8.20
2023-04-23T01:56:00.617Z,8.21
2023-04-23T01:59:02.464Z,8.22
2023-04-23T02:02:04.138Z,8.16
2023-04-23T02:05:11.293Z,8.11
2023-04-23T02:08:14.297Z,8.14
2023-04-23T02:11:16.002Z,8.07
2023-04-23T02:14:17.793Z,7.97
2023-04-23T02:17:20.523Z,8.03
2023-04-23T02:20:22.465Z,8.01
2023-04-23T02:23:25.694Z,7.95
2023-04-23T02:26:27.301Z,8.00
2023-04-23T02:29:29.014Z,8.07
2023-04-23T02:32:30.667Z,8.03
2023-04-23T02:35:32.504Z,8.05
2023-04-23T02:38:35.509Z,7.90
2023-04-23T02:41:37.162Z,7.87
2023-04-23T02:44:39.267Z,7.69
2023-04-23T02:47:41.462Z,7.79
2023-04-23T02:50:43.147Z,7.76
2023-04-23T02:53:46.229Z,7.68
2023-04-23T02:56:47.931Z,7.71
2023-04-23T02:59:49.637Z,7.72
2023-04-23T03:02:51.393Z,7.42
2023-04-23T03:05:53.880Z,7.55
2023-04-23T03:08:56.850Z,7.59
2023-04-23T03:11:58.473Z,7.64
2023-04-23T03:15:00.268Z,7.56
2023-04-23T03:18:02.024Z,7.56
2023-04-23T03:21:04.111Z,7.52
2023-04-23T03:24:07.454Z,7.47
2023-04-23T03:27:09.261Z,7.52
2023-04-23T03:30:11.821Z,7.31
2023-04-23T03:33:13.836Z,7.41
2023-04-23T03:36:15.547Z,7.52
2023-04-23T03:39:18.621Z,7.48
2023-04-23T03:42:20.259Z,7.52
2023-04-23T03:45:21.907Z,7.56
2023-04-23T03:48:23.934Z,7.58
2023-04-23T03:51:25.823Z,7.39
2023-04-23T03:54:28.782Z,7.28
2023-04-23T03:57:30.692Z,7.38
2023-04-23T04:00:32.672Z,7.36
2023-04-23T04:03:34.484Z,7.30
2023-04-23T04:06:36.288Z,7.31
2023-04-23T04:09:39.382Z,7.12
2023-04-23T04:12:41.045Z,7.18
2023-04-23T04:15:42.810Z,7.23
2023-04-23T04:18:44.561Z,7.39
2023-04-23T04:21:46.211Z,7.40
2023-04-23T04:24:49.220Z,7.41
2023-04-23T04:27:50.973Z,7.59
2023-04-23T04:30:52.978Z,7.65
2023-04-23T04:33:54.756Z,7.79
2023-04-23T04:36:56.668Z,7.84
2023-04-23T04:40:00.107Z,7.93
2023-04-23T04:43:01.839Z,8.02
2023-04-23T04:46:04.715Z,8.18
2023-04-23T04:49:08.657Z,8.46
2023-04-23T04:52:10.501Z,8.77
2023-04-23T04:55:13.480Z,8.98
2023-04-23T04:58:15.606Z,9.13
2023-04-23T05:01:17.744Z,9.38
2023-04-23T05:04:19.530Z,9.54
2023-04-23T05:07:21.211Z,9.70
2023-04-23T05:10:24.309Z,9.81
2023-04-23T05:13:26.128Z,10.01
2023-04-23T05:16:27.943Z,10.25
2023-04-23T05:19:29.656Z,10.56
2023-04-23T05:22:31.632Z,10.85
2023-04-23T05:25:34.777Z,11.16
2023-04-23T05:28:36.474Z,11.36
2023-04-23T05:31:38.157Z,11.57
2023-04-23T05:34:40.338Z,11.84
2023-04-23T05:37:42.499Z,12.10
2023-04-23T05:40:45.692Z,12.40
2023-04-23T05:43:47.506Z,12.65
2023-04-23T05:46:49.178Z,12.83
2023-04-23T05:49:50.862Z,13.02
2023-04-23T05:52:52.503Z,13.17
2023-04-23T05:55:55.755Z,13.28
2023-04-23T05:58:57.451Z,13.41
2023-04-23T06:01:59.754Z,13.54
2023-04-23T06:05:01.950Z,13.64
2023-04-23T06:08:04.133Z,13.77
2023-04-23T06:11:07.509Z,13.94
2023-04-23T06:14:09.153Z,14.07
2023-04-23T06:17:10.859Z,14.24
2023-04-23T06:20:12.583Z,14.38
2023-04-23T06:23:14.649Z,14.59
2023-04-23T06:26:17.701Z,14.71
2023-04-23T06:29:19.407Z,14.86
2023-04-23T06:32:21.760Z,14.95
2023-04-23T06:35:23.409Z,14.99
2023-04-23T06:38:25.098Z,15.06
2023-04-23T06:41:28.173Z,15.20
2023-04-23T06:44:30.089Z,15.31
2023-04-23T06:47:31.757Z,15.43
2023-04-23T06:50:35.056Z,15.53
2023-04-23T06:53:36.851Z,15.60
2023-04-23T06:56:39.871Z,15.70
2023-04-23T06:59:41.574Z,15.71
2023-04-23T07:02:43.401Z,15.77
2023-04-23T07:05:45.201Z,15.96
2023-04-23T07:08:47.153Z,16.01
2023-04-23T07:11:50.362Z,16.13
2023-04-23T07:14:52.356Z,16.17
2023-04-23T07:17:54.022Z,16.29
2023-04-23T07:20:55.976Z,16.41
2023-04-23T07:23:58.072Z,16.59
2023-04-23T07:27:01.090Z,16.73
2023-04-23T07:30:03.103Z,16.92
2023-04-23T07:33:05.009Z,16.95
2023-04-23T07:36:06.763Z,16.99
2023-04-23T07:39:08.716Z,17.10
2023-04-23T07:42:12.001Z,17.45
2023-04-23T07:45:13.664Z,17.53
2023-04-23T07:48:15.349Z,17.60
2023-04-23T07:51:17.085Z,17.59
2023-04-23T07:54:18.810Z,17.78
2023-04-23T07:57:21.862Z,17.92
2023-04-23T08:00:23.756Z,18.00
2023-04-23T08:03:25.674Z,18.09
2023-04-23T08:06:27.752Z,18.20
2023-04-23T08:09:29.659Z,18.31
2023-04-23T08:12:33.304Z,18.36
2023-04-23T08:15:35.037Z,18.45
2023-04-23T08:18:36.707Z,18.50
2023-04-23T08:21:38.401Z,18.58
2023-04-23T08:24:40.180Z,18.62
2023-04-23T08:27:43.214Z,19.01
2023-04-23T08:30:44.948Z,18.81
2023-04-23T08:33:46.676Z,18.87
2023-04-23T08:36:48.848Z,18.91
2023-04-23T08:39:50.794Z,19.00
2023-04-23T08:42:59.409Z,19.10
2023-04-23T08:46:03.354Z,19.05
2023-04-23T08:49:07.749Z,19.14
2023-04-23T08:52:15.904Z,19.16
2023-04-23T08:55:18.504Z,19.17
2023-04-23T08:58:22.091Z,19.34
2023-04-23T09:01:24.204Z,19.39
2023-04-23T09:04:26.300Z,19.49
2023-04-23T09:07:28.159Z,19.56
2023-04-23T09:10:29.860Z,19.53
2023-04-23T09:13:34.830Z,19.51
2023-04-23T09:16:36.793Z,19.55
2023-04-23T09:19:39.843Z,19.53
2023-04-23T09:22:44.352Z,19.62
2023-04-23T09:25:47.798Z,19.76
2023-04-23T09:28:51.588Z,19.76
2023-04-23T09:31:55.412Z,19.83
2023-04-23T09:34:57.584Z,19.93
2023-04-23T09:38:00.832Z,20.03
2023-04-23T09:41:17.305Z,20.17
2023-04-23T09:44:21.882Z,20.30
2023-04-23T09:47:25.167Z,20.46
2023-04-23T09:50:33.291Z,20.50
2023-04-23T09:53:41.278Z,20.71
2023-04-23T09:56:43.539Z,20.68
2023-04-23T09:59:50.162Z,20.71
2023-04-23T10:02:54.823Z,20.81
2023-04-23T10:06:01.669Z,20.76
2023-04-23T10:09:04.108Z,20.86
2023-04-23T10:12:09.780Z,20.87
2023-04-23T10:15:23.756Z,20.79
2023-04-23T10:18:25.626Z,20.89
2023-04-23T10:21:39.422Z,20.88
2023-04-23T10:24:53.067Z,20.81
2023-04-23T10:27:56.955Z,20.72
2023-04-23T10:31:01.191Z,20.75
2023-04-23T10:34:04.436Z,20.67
2023-04-23T10:37:06.429Z,20.47
2023-04-23T10:40:13.296Z,20.55
2023-04-23T10:43:15.164Z,20.59
2023-04-23T10:46:31.545Z,20.71
2023-04-23T10:49:34.338Z,20.77
2023-04-23T10:52:36.080Z,20.74
2023-04-23T10:55:37.755Z,20.69
2023-04-23T10:58:49.190Z,20.69
2023-04-23T11:01:52.455Z,20.80
2023-04-23T11:04:55.897Z,20.94
2023-04-23T11:11:10.814Z,21.20
2023-04-23T11:14:13.380Z,21.29
2023-04-23T11:17:18.312Z,21.59
2023-04-23T11:20:21.198Z,21.75
2023-04-23T11:23:30.508Z,21.79
2023-04-23T11:39:57.790Z,21.21
2023-04-23T11:42:59.475Z,21.21
2023-04-23T11:46:01.314Z,21.33
2023-04-23T11:52:15.187Z,21.81
2023-04-23T11:55:17.075Z,22.05
2023-04-23T11:58:18.687Z,22.10
2023-04-23T12:01:20.373Z,22.15
2023-04-23T12:04:23.816Z,22.09
2023-04-23T12:07:33.195Z,22.07
2023-04-23T12:10:42.678Z,22.21
2023-04-23T12:13:45.397Z,22.23
2023-04-23T12:16:48.550Z,22.17
2023-04-23T12:19:50.086Z,21.88
2023-04-23T12:22:52.936Z,21.68
2023-04-23T12:25:55.204Z,21.70
2023-04-23T12:28:58.964Z,21.75
2023-04-23T12:32:00.718Z,21.76
2023-04-23T12:35:02.392Z,21.90
2023-04-23T12:38:06.384Z,22.14
2023-04-23T12:41:08.478Z,22.22
2023-04-23T12:44:10.589Z,22.31
2023-04-23T12:47:12.200Z,22.22
2023-04-23T12:50:13.889Z,22.16
2023-04-23T12:53:18.654Z,22.17
2023-04-23T12:56:20.693Z,22.07
2023-04-23T12:59:22.334Z,22.22
2023-04-23T13:02:25.485Z,22.39
2023-04-23T13:05:27.363Z,22.36
2023-04-23T13:08:30.366Z,22.33
2023-04-23T13:11:32.211Z,22.34
2023-04-23T13:14:34.194Z,22.31
2023-04-23T13:17:36.753Z,22.09
2023-04-23T13:20:38.976Z,21.92
2023-04-23T13:23:42.270Z,21.85
2023-04-23T13:26:44.001Z,21.60
2023-04-23T13:29:45.685Z,21.26
2023-04-23T13:32:47.620Z,21.14
2023-04-23T13:35:49.596Z,21.04
2023-04-23T13:38:52.685Z,21.03
2023-04-23T13:45:01.238Z,21.05
2023-04-23T13:48:03.136Z,21.16
2023-04-23T13:51:09.052Z,21.28
2023-04-23T13:54:20.713Z,21.42
2023-04-23T13:57:22.604Z,21.63
2023-04-23T14:00:28.641Z,21.80
2023-04-23T14:03:30.592Z,21.76
2023-04-23T14:06:32.615Z,21.72
2023-04-23T14:09:36.290Z,21.62
2023-04-23T14:12:38.392Z,21.72
2023-04-23T14:15:40.447Z,21.87
2023-04-23T14:18:42.647Z,22.03
2023-04-23T14:21:45.203Z,21.95
2023-04-23T14:24:51.319Z,22.02
2023-04-23T14:27:56.884Z,21.94
2023-04-23T14:31:00.561Z,21.92
2023-04-23T14:34:02.565Z,21.93
2023-04-23T14:37:05.205Z,21.91
2023-04-23T14:40:10.164Z,21.92
2023-04-23T14:43:15.796Z,21.78
2023-04-23T14:46:17.754Z,21.48
2023-04-23T14:49:19.837Z,21.53
2023-04-23T14:52:21.860Z,21.35
2023-04-23T14:55:25.015Z,21.46
2023-04-23T14:58:26.531Z,21.30
2023-04-23T15:01:29.119Z,21.17
2023-04-23T15:04:31.088Z,21.02
2023-04-23T15:07:33.173Z,20.73
2023-04-23T15:10:36.757Z,20.52
2023-04-23T15:13:44.730Z,20.35
2023-04-23T15:16:49.292Z,20.33
2023-04-23T15:19:52.593Z,20.25
2023-04-23T15:22:54.716Z,20.28
2023-04-23T15:25:58.173Z,20.23
2023-04-23T15:29:00.225Z,20.20
2023-04-23T15:32:01.922Z,20.17
2023-04-23T15:35:04.207Z,20.16
2023-04-23T15:38:05.914Z,20.03
2023-04-23T15:41:10.926Z,19.92
2023-04-23T15:44:12.639Z,19.78
2023-04-23T15:47:14.354Z,19.62
2023-04-23T15:50:16.262Z,19.51
2023-04-23T15:53:18.181Z,19.45
2023-04-23T15:56:24.450Z,19.38
2023-04-23T15:59:26.409Z,19.32
2023-04-23T16:02:28.649Z,19.26
2023-04-23T16:05:31.561Z,19.14
2023-04-23T16:08:33.600Z,19.11
2023-04-23T16:11:41.540Z,18.97
2023-04-23T16:14:43.987Z,19.08
2023-04-23T16:17:49.295Z,18.98
2023-04-23T16:20:51.372Z,18.79
2023-04-23T16:23:55.983Z,19.04
2023-04-23T16:27:17.957Z,18.99
2023-04-23T16:30:19.988Z,18.86
2023-04-23T16:33:21.760Z,18.81
2023-04-23T16:36:24.246Z,18.77
2023-04-23T16:39:26.395Z,18.66
2023-04-23T16:42:29.891Z,18.57
2023-04-23T16:45:31.635Z,18.53
2023-04-23T16:48:33.790Z,18.53
2023-04-23T16:51:35.810Z,18.45
2023-04-23T16:54:38.221Z,18.32
2023-04-23T16:57:41.700Z,18.17
2023-04-23T17:00:51.221Z,18.06
2023-04-23T17:03:53.240Z,18.00
2023-04-23T17:06:55.816Z,17.89
2023-04-23T17:09:57.679Z,17.73
2023-04-23T17:13:01.919Z,17.60
2023-04-23T17:16:04.032Z,17.48
2023-04-23T17:19:06.492Z,17.33
2023-04-23T17:22:09.255Z,17.18
2023-04-23T17:25:12.599Z,17.10
2023-04-23T17:28:17.111Z,16.97
2023-04-23T17:31:19.777Z,16.79
2023-04-23T17:34:22.093Z,16.63
2023-04-23T17:37:24.513Z,16.46
2023-04-23T17:40:27.352Z,16.29
2023-04-23T17:43:35.476Z,16.18
2023-04-23T17:46:38.105Z,16.07
2023-04-23T17:49:40.701Z,15.97
2023-04-23T17:52:43.927Z,15.87
2023-04-23T17:55:46.561Z,15.78
2023-04-23T17:58:51.853Z,15.65
2023-04-23T18:01:54.753Z,15.56
2023-04-23T18:04:57.767Z,15.47
2023-04-23T18:08:00.307Z,15.25
2023-04-23T18:11:03.998Z,15.25
2023-04-23T18:14:11.175Z,15.14
2023-04-23T18:17:13.585Z,15.05
2023-04-23T18:20:15.837Z,14.95
2023-04-23T18:23:18.591Z,14.82
2023-04-23T18:26:20.788Z,14.71
2023-04-23T18:29:24.982Z,14.60
2023-04-23T18:32:34.046Z,14.47
2023-04-23T18:35:37.752Z,14.39
2023-04-23T18:38:44.544Z,14.25
2023-04-23T18:41:47.801Z,14.19
2023-04-23T18:44:51.818Z,14.09
2023-04-23T18:47:59.825Z,13.99
2023-04-23T18:51:06.314Z,13.93
2023-04-23T18:54:09.966Z,13.84
2023-04-23T18:57:12.702Z,13.75
2023-04-23T19:00:20.296Z,13.67
2023-04-23T19:03:26.768Z,13.60
2023-04-23T19:06:31.063Z,13.53
2023-04-23T19:09:33.379Z,13.42
2023-04-23T19:12:35.733Z,13.34
2023-04-23T19:15:40.128Z,13.21
2023-04-23T19:18:42.889Z,13.10
2023-04-23T19:21:46.446Z,13.01
2023-04-23T19:24:48.975Z,12.93
2023-04-23T19:27:51.524Z,12.84
2023-04-23T19:30:59.345Z,12.75
2023-04-23T19:34:05.059Z,12.62
2023-04-23T19:37:07.803Z,12.54
2023-04-23T19:40:10.037Z,12.50
2023-04-23T19:43:12.839Z,12.47
2023-04-23T19:46:16.465Z,12.47
2023-04-23T19:49:18.447Z,12.44
2023-04-23T19:52:23.105Z,12.42
2023-04-23T19:55:26.030Z,12.32
2023-04-23T19:58:29.676Z,12.24
2023-04-23T20:01:33.443Z,12.26
2023-04-23T20:04:35.599Z,12.24
2023-04-23T20:07:37.878Z,12.23
2023-04-23T20:10:39.721Z,12.22
2023-04-23T20:13:41.527Z,12.17
2023-04-23T20:16:44.652Z,12.19
2023-04-23T20:19:46.480Z,12.22
2023-04-23T20:22:48.691Z,12.21
2023-04-23T20:25:51.227Z,12.21
2023-04-23T20:28:53.810Z,12.25
2023-04-23T20:31:57.152Z,12.22
2023-04-23T20:34:58.833Z,12.23
2023-04-23T20:38:01.256Z,12.22
2023-04-23T20:41:02.985Z,12.18
2023-04-23T20:44:05.033Z,12.16
2023-04-23T20:47:08.061Z,12.15
2023-04-23T20:50:10.206Z,12.13
2023-04-23T20:53:12.166Z,12.15
2023-04-23T20:56:13.861Z,12.15
2023-04-23T20:59:15.544Z,12.15
2023-04-23T21:02:18.842Z,12.17
2023-04-23T21:05:20.656Z,12.06
2023-04-23T21:08:22.305Z,12.19
2023-04-23T21:11:24.259Z,12.21
2023-04-23T21:14:26.339Z,12.21
2023-04-23T21:17:29.734Z,12.14
2023-04-23T21:20:31.508Z,12.08
2023-04-23T21:23:33.239Z,12.04
2023-04-23T21:26:34.968Z,12.09
2023-04-23T21:29:36.670Z,12.06
2023-04-23T21:32:39.877Z,12.12
2023-04-23T21:35:41.631Z,12.09
2023-04-23T21:38:43.624Z,12.10
2023-04-23T21:41:45.302Z,12.09
2023-04-23T21:44:47.501Z,12.06
2023-04-23T21:47:50.820Z,12.09
2023-04-23T21:50:52.705Z,12.09
2023-04-23T21:53:54.810Z,12.10
2023-04-23T21:56:56.665Z,12.08
2023-04-23T21:59:58.421Z,12.02
2023-04-23T22:03:01.886Z,12.05
2023-04-23T22:06:03.720Z,12.02
2023-04-23T22:09:05.420Z,11.99
2023-04-23T22:12:07.790Z,11.94
2023-04-23T22:15:11.547Z,11.94
2023-04-23T22:18:14.638Z,11.92
2023-04-23T22:21:16.354Z,11.91
2023-04-23T22:24:18.014Z,11.90
2023-04-23T22:27:19.990Z,11.89
2023-04-23T22:30:21.862Z,11.81
2023-04-23T22:33:24.895Z,11.88
2023-04-23T22:36:26.576Z,11.94
2023-04-23T22:39:28.254Z,11.83
2023-04-23T22:42:30.153Z,11.92
2023-04-23T22:45:32.057Z,11.92
2023-04-23T22:48:35.071Z,11.90
2023-04-23T22:51:36.736Z,11.90
2023-04-23T22:54:38.771Z,11.87
2023-04-23T22:57:40.521Z,11.87
2023-04-23T23:00:42.305Z,11.89
2023-04-23T23:03:45.446Z,11.89
2023-04-23T23:06:47.660Z,11.96
2023-04-23T23:09:49.530Z,12.00
2023-04-23T23:12:51.446Z,12.03
2023-04-23T23:15:53.398Z,12.07
2023-04-23T23:18:56.537Z,12.10
2023-04-23T23:21:58.470Z,12.13
2023-04-23T23:25:00.661Z,12.12
2023-04-23T23:28:02.311Z,12.13
2023-04-23T23:31:04.026Z,12.00
2023-04-23T23:34:07.126Z,12.10
2023-04-23T23:37:08.780Z,12.05
2023-04-23T23:40:11.236Z,12.02
2023-04-23T23:43:12.967Z,12.00
2023-04-23T23:46:14.705Z,11.88
2023-04-23T23:49:17.749Z,11.96
2023-04-23T23:52:19.418Z,11.95
2023-04-23T23:55:21.187Z,11.93
2023-04-23T23:58:23.158Z,11.99
